Time;durP1;ratioP1;P1;durP2;ratioP2;P2;SDS_P1;SDS_P2;PMS_P1;PMS_P2;Temp;Humidity;BMP_temperature;BMP_pressure;BME280_temperature;BME280_humidity;BME280_pressure;Samples;Min_cycle;Max_cycle;Signal;HPM_P1;HPM_P2
2022/06/30 00:00:13;;;;;;;6.60;6.00;;;20.50;99.90;;;;;;4997827;28;20037;-84
2022/06/30 00:02:40;;;;;;;7.82;5.60;;;20.40;99.90;;;;;;5013699;28;20556;-83
2022/06/30 00:05:07;;;;;;;7.70;5.60;;;20.30;99.90;;;;;;4997477;28;20056;-85
2022/06/30 00:07:33;;;;;;;7.32;6.60;;;20.70;99.90;;;;;;5031976;28;20127;-85
2022/06/30 00:09:59;;;;;;;7.03;6.30;;;20.40;99.90;;;;;;5033614;28;20136;-83
2022/06/30 00:12:24;;;;;;;9.02;6.57;;;20.60;99.90;;;;;;5017135;28;20049;-85
2022/06/30 00:14:50;;;;;;;12.65;6.85;;;20.70;99.90;;;;;;5020321;28;20485;-85
2022/06/30 00:17:16;;;;;;;7.10;6.40;;;20.50;99.90;;;;;;5034191;28;20406;-87
2022/06/30 00:19:42;;;;;;;7.22;6.53;;;;;;;;;;5001278;28;20045;-84
2022/06/30 00:22:08;;;;;;;8.63;6.45;;;;;;;;;;5001277;28;20041;-84
2022/06/30 00:24:34;;;;;;;7.65;6.85;;;;;;;;;;5017562;28;20045;-84
2022/06/30 00:27:00;;;;;;;6.72;6.03;;;20.30;99.90;;;;;;5005323;28;20052;-83
2022/06/30 00:29:26;;;;;;;8.45;6.35;;;;;;;;;;5015067;28;20406;-84
2022/06/30 00:31:52;;;;;;;6.95;6.25;;;;;;;;;;5017638;28;20410;-83
2022/06/30 00:34:18;;;;;;;7.15;6.45;;;;;;;;;;5017909;28;21035;-83
2022/06/30 00:36:44;;;;;;;5.75;5.25;;;20.20;99.90;;;;;;5001413;28;20041;-82
2022/06/30 00:39:11;;;;;;;6.20;5.60;;;;;;;;;;5017614;28;20068;-83
2022/06/30 00:41:41;;;;;;;7.93;5.32;;;20.20;99.90;;;;;;5020769;28;20052;-82
2022/06/30 00:44:07;;;;;;;5.50;4.90;;;;;;;;;;5037292;28;20040;-84
2022/06/30 00:46:34;;;;;;;6.38;5.78;;;;;;;;;;5036617;28;20131;-83
2022/06/30 00:49:00;;;;;;;7.35;5.40;;;20.20;99.90;;;;;;5020707;28;20051;-82
2022/06/30 00:51:26;;;;;;;5.75;5.22;;;20.20;99.90;;;;;;5020771;28;20036;-84
2022/06/30 00:53:54;;;;;;;7.15;5.45;;;20.00;99.90;;;;;;5037079;28;20456;-84
2022/06/30 00:56:24;;;;;;;6.18;5.57;;;20.10;99.90;;;;;;5019967;28;20083;-83
2022/06/30 00:58:52;;;;;;;5.57;4.80;;;19.90;99.90;;;;;;5033283;28;20055;-83
2022/06/30 01:01:18;;;;;;;5.80;5.20;;;;;;;;;;5017096;28;20045;-85
2022/06/30 01:03:44;;;;;;;5.60;5.10;;;;;;;;;;5000277;28;20041;-83
2022/06/30 01:06:11;;;;;;;7.53;5.72;;;20.10;99.90;;;;;;5021980;28;20048;-85
2022/06/30 01:08:37;;;;;;;5.40;4.90;;;;;;;;;;5020517;28;20052;-85
2022/06/30 01:13:49;;;;;;;5.53;4.97;;;19.90;99.90;;;;;;5036587;28;20485;-83
2022/06/30 01:16:19;;;;;;;6.32;4.57;;;;;;;;;;5032253;28;20361;-84
2022/06/30 01:18:45;;;;;;;4.68;4.28;;;;;;;;;;5023477;28;20045;-83
2022/06/30 01:21:11;;;;;;;9.20;4.32;;;;;;;;;;5020248;28;20049;-82
2022/06/30 01:23:37;;;;;;;4.30;3.95;;;;;;;;;;5005358;28;20052;-83
2022/06/30 01:26:03;;;;;;;4.63;4.22;;;;;;;;;;5015370;28;20045;-85
2022/06/30 01:28:29;;;;;;;5.15;4.65;;;;;;;;;;5017296;28;20491;-83
2022/06/30 01:30:56;;;;;;;4.68;4.28;;;;;;;;;;5035976;28;20053;-85
2022/06/30 01:33:22;;;;;;;6.93;5.00;;;;;;;;;;5020139;28;20067;-83
2022/06/30 01:35:48;;;;;;;6.95;4.30;;;;;;;;;;5019370;28;20045;-84
2022/06/30 01:38:14;;;;;;;5.30;4.30;;;;;;;;;;5019802;28;20048;-82
2022/06/30 01:40:40;;;;;;;5.35;4.85;;;;;;;;;;5015197;28;20120;-84
2022/06/30 01:43:06;;;;;;;11.77;5.10;;;;;;;;;;4999867;28;20046;-86
2022/06/30 01:45:33;;;;;;;5.93;5.30;;;19.40;99.90;;;;;;5000269;28;20049;-86
2022/06/30 01:47:59;;;;;;;5.13;4.68;;;;;;;;;;5000282;28;20045;-82
2022/06/30 01:50:27;;;;;;;5.78;5.28;;;19.60;99.90;;;;;;5021781;28;20059;-84
2022/06/30 01:52:53;;;;;;;5.07;4.68;;;;;;;;;;5019561;28;20127;-85
2022/06/30 01:55:19;;;;;;;5.38;4.90;;;;;;;;;;5035720;28;20135;-84
2022/06/30 01:57:45;;;;;;;4.82;4.32;;;;;;;;;;5019162;28;20044;-83
2022/06/30 02:00:17;;;;;;;5.07;4.57;;;19.40;99.90;;;;;;5019387;28;20051;-83
2022/06/30 02:02:44;;;;;;;6.80;4.80;;;;;;;;;;5015528;28;20044;-83
2022/06/30 02:05:10;;;;;;;5.80;4.88;;;;;;;;;;4999090;28;20056;-84
2022/06/30 02:07:37;;;;;;;9.18;4.97;;;19.30;99.90;;;;;;5015818;28;20087;-85
2022/06/30 02:10:04;;;;;;;6.15;3.95;;;19.20;99.90;;;;;;5015779;28;20104;-83
2022/06/30 02:12:46;;;;;;;6.47;4.22;;;;;;;;;;5012263;28;20374;-82
2022/06/30 02:15:16;;;;;;;5.68;5.05;;;19.20;99.90;;;;;;5019303;28;20105;-85
2022/06/30 02:17:42;;;;;;;5.20;4.70;;;;;;;;;;5018986;28;20433;-85
2022/06/30 02:20:09;;;;;;;6.05;5.18;;;19.10;99.90;;;;;;5019098;28;20152;-85
2022/06/30 02:22:35;;;;;;;6.40;4.85;;;19.20;99.90;;;;;;5014376;28;20398;-86
2022/06/30 02:25:02;;;;;;;4.80;4.20;;;;;;;;;;4999084;28;20481;-85
2022/06/30 02:27:28;;;;;;;7.10;5.35;;;;;;;;;;5032035;28;20060;-85
2022/06/30 02:29:54;;;;;;;5.25;4.78;;;;;;;;;;5032078;28;20167;-84
2022/06/30 02:32:21;;;;;;;4.90;4.50;;;19.00;99.90;;;;;;5031831;28;20053;-85
2022/06/30 02:34:48;;;;;;;6.60;4.45;;;19.10;99.90;;;;;;5034694;28;20087;-84
2022/06/30 02:37:14;;;;;;;7.90;5.07;;;;;;;;;;5018118;28;20106;-85
2022/06/30 02:39:40;;;;;;;4.78;4.38;;;;;;;;;;5018791;28;20142;-82
2022/06/30 02:42:06;;;;;;;7.32;4.40;;;18.90;99.90;;;;;;5018568;28;20045;-85
2022/06/30 02:44:32;;;;;;;9.00;4.93;;;;;;;;;;5012557;28;20176;-85
2022/06/30 02:46:58;;;;;;;4.80;4.30;;;;;;;;;;4998781;28;20048;-86
2022/06/30 02:49:24;;;;;;;6.68;4.68;;;;;;;;;;5015236;28;20049;-85
2022/06/30 02:51:50;;;;;;;4.55;3.63;;;;;;;;;;4998777;28;20045;-85
2022/06/30 02:54:16;;;;;;;6.43;4.78;;;18.90;99.90;;;;;;5003822;28;20406;-84
2022/06/30 02:56:43;;;;;;;4.85;4.45;;;;;;;;;;5051534;28;20041;-83
2022/06/30 02:59:08;;;;;;;6.40;4.00;;;18.80;99.90;;;;;;5034980;28;20045;-83
2022/06/30 03:01:35;;;;;;;5.30;4.03;;;;;;;;;;5018635;28;20513;-86
2022/06/30 03:04:02;;;;;;;4.50;4.10;;;18.60;99.90;;;;;;5013758;28;20068;-88
2022/06/30 03:06:32;;;;;;;5.13;4.63;;;18.80;99.90;;;;;;5033191;28;20042;-83
2022/06/30 03:08:58;;;;;;;6.93;4.22;;;;;;;;;;5015377;28;20115;-85
2022/06/30 03:11:24;;;;;;;4.75;4.30;;;;;;;;;;5015041;28;20558;-85
2022/06/30 03:13:50;;;;;;;4.90;4.03;;;;;;;;;;5018442;28;20033;-86
2022/06/30 03:16:20;;;;;;;6.78;4.32;;;;;;;;;;5017922;28;20051;-82
2022/06/30 03:18:46;;;;;;;4.40;3.65;;;18.50;99.90;;;;;;5017882;28;20083;-84
2022/06/30 03:21:12;;;;;;;7.82;4.35;;;18.50;99.90;;;;;;5034241;28;20069;-82
2022/06/30 03:23:38;;;;;;;4.38;3.97;;;;;;;;;;5014170;28;20041;-86
2022/06/30 03:26:04;;;;;;;5.68;4.90;;;;;;;;;;5014655;28;20053;-86
2022/06/30 03:28:31;;;;;;;4.95;4.35;;;18.60;99.90;;;;;;4983560;28;20057;-86
2022/06/30 03:30:58;;;;;;;5.28;4.60;;;;;;;;;;4978764;28;20133;-87
2022/06/30 03:33:24;;;;;;;5.20;4.70;;;;;;;;;;4980060;28;20502;-83
2022/06/30 03:35:50;;;;;;;5.15;4.75;;;;;;;;;;4998000;28;20453;-84
2022/06/30 03:38:17;;;;;;;14.10;5.88;;;;;;;;;;5030797;28;20038;-87
2022/06/30 03:40:43;;;;;;;7.07;5.05;;;;;;;;;;5014835;28;20037;-86
2022/06/30 03:43:09;;;;;;;5.65;4.72;;;;;;;;;;5030231;28;20045;-86
2022/06/30 03:45:35;;;;;;;5.82;4.97;;;;;;;;;;5014446;28;20053;-83
2022/06/30 03:48:04;;;;;;;5.57;4.78;;;18.50;99.90;;;;;;4996867;28;20128;-86
2022/06/30 03:50:30;;;;;;;5.07;4.35;;;;;;;;;;5014181;28;20045;-86
2022/06/30 03:52:56;;;;;;;4.93;4.40;;;;;;;;;;4997250;28;20136;-86
2022/06/30 03:55:22;;;;;;;5.25;4.40;;;18.50;99.90;;;;;;5025768;28;20042;-86
2022/06/30 03:57:48;;;;;;;5.93;5.32;;;;;;;;;;5010957;28;20045;-87
2022/06/30 04:00:15;;;;;;;8.68;5.40;;;18.30;99.90;;;;;;5011038;28;20450;-87
2022/06/30 04:02:41;;;;;;;10.82;4.72;;;;;;;;;;5016006;28;20049;-87
2022/06/30 04:05:07;;;;;;;5.35;4.30;;;;;;;;;;5014162;28;20045;-87
2022/06/30 04:07:40;;;;;;;10.18;4.30;;;18.40;99.90;;;;;;4997695;28;20410;-84
2022/06/30 04:10:07;;;;;;;9.52;5.00;;;18.40;99.90;;;;;;4997295;28;20077;-85
2022/06/30 04:12:33;;;;;;;6.30;4.68;;;;;;;;;;5013964;28;20076;-85
2022/06/30 04:14:59;;;;;;;5.63;4.30;;;;;;;;;;4996769;28;20085;-84
2022/06/30 04:17:25;;;;;;;10.02;4.50;;;;;;;;;;5046213;28;20057;-84
2022/06/30 04:19:51;;;;;;;7.20;4.82;;;;;;;;;;5013788;28;20045;-86
2022/06/30 04:22:18;;;;;;;7.28;4.55;;;;;;;;;;5013513;28;20041;-84
2022/06/30 04:24:44;;;;;;;5.15;4.65;;;;;;;;;;5011953;28;20108;-84
2022/06/30 04:27:10;;;;;;;5.53;4.63;;;;;;;;;;5033639;28;20057;-83
2022/06/30 04:29:36;;;;;;;6.47;5.40;;;;;;;;;;5033426;28;20063;-83
2022/06/30 04:34:47;;;;;;;5.20;4.70;;;;;;;;;;5030439;28;20100;-84
2022/06/30 04:37:13;;;;;;;7.32;4.25;;;;;;;;;;5024884;28;20126;-85
2022/06/30 04:39:39;;;;;;;7.60;4.68;;;;;;;;;;5015479;28;20037;-83
2022/06/30 04:42:04;;;;;;;7.28;4.60;;;18.30;99.90;;;;;;5030020;28;20072;-83
2022/06/30 04:44:30;;;;;;;5.43;4.88;;;;;;;;;;5013326;28;20494;-83
2022/06/30 04:46:56;;;;;;;5.20;4.70;;;;;;;;;;4997295;28;20042;-84
2022/06/30 04:49:22;;;;;;;4.90;4.40;;;;;;;;;;5017014;28;20036;-83
2022/06/30 04:51:50;;;;;;;7.03;4.80;;;;;;;;;;5033377;28;20047;-84
2022/06/30 04:54:17;;;;;;;6.90;4.68;;;;;;;;;;5015698;28;20462;-87
2022/06/30 04:56:43;;;;;;;9.23;4.55;;;;;;;;;;5031596;28;20075;-85
2022/06/30 04:59:09;;;;;;;6.93;4.40;;;;;;;;;;5015854;28;20091;-87
2022/06/30 05:01:35;;;;;;;7.18;4.20;;;;;;;;;;5020164;28;20123;-86
2022/06/30 05:04:01;;;;;;;4.60;4.15;;;;;;;;;;5033709;28;20156;-85
2022/06/30 05:06:27;;;;;;;6.63;4.63;;;;;;;;;;5020919;28;20076;-86
2022/06/30 05:08:53;;;;;;;6.05;5.07;;;;;;;;;;5037461;28;20084;-84
2022/06/30 05:11:19;;;;;;;7.65;4.85;;;;;;;;;;5020605;28;20091;-82
2022/06/30 05:13:45;;;;;;;6.28;5.22;;;;;;;;;;5018979;28;20037;-85
2022/06/30 05:16:11;;;;;;;7.43;4.55;;;;;;;;;;5020681;28;20080;-83
2022/06/30 05:18:37;;;;;;;6.70;5.63;;;19.10;99.90;;;;;;5036908;28;20063;-86
2022/06/30 05:21:03;;;;;;;6.20;5.10;;;;;;;;;;5020970;28;20128;-84
2022/06/30 05:23:29;;;;;;;6.55;5.20;;;;;;;;;;5019730;28;20044;-84
2022/06/30 05:28:40;;;;;;;7.75;5.38;;;;;;;;;;5002025;28;20062;-86
2022/06/30 05:31:05;;;;;;;6.63;5.00;;;19.30;99.90;;;;;;4981645;28;20046;-86
2022/06/30 05:33:31;;;;;;;7.28;4.90;;;;;;;;;;4981265;28;20113;-88
2022/06/30 05:35:58;;;;;;;5.53;4.85;;;;;;;;;;4984285;28;20053;-87
2022/06/30 05:38:24;;;;;;;6.07;5.47;;;;;;;;;;4997336;28;20053;-84
2022/06/30 05:40:50;;;;;;;5.40;4.55;;;;;;;;;;4996840;28;20136;-88
2022/06/30 05:43:17;;;;;;;6.82;5.18;;;19.40;99.90;;;;;;4996503;28;20095;-85
2022/06/30 05:45:46;;;;;;;5.15;4.75;;;19.70;99.90;;;;;;4987969;28;20077;-85
2022/06/30 05:48:12;;;;;;;8.50;5.05;;;;;;;;;;5000020;28;20084;-88
2022/06/30 05:50:38;;;;;;;5.35;4.43;;;;;;;;;;4999929;28;20107;-85
2022/06/30 05:53:04;;;;;;;10.27;5.15;;;;;;;;;;5016445;28;20048;-82
2022/06/30 05:55:30;;;;;;;7.03;5.18;;;;;;;;;;4995874;28;20064;-83
2022/06/30 05:57:56;;;;;;;6.20;5.13;;;;;;;;;;4996876;28;20531;-83
2022/06/30 06:00:24;;;;;;;4.93;4.32;;;19.70;99.90;;;;;;4996382;28;20053;-83
2022/06/30 06:02:50;;;;;;;10.00;5.65;;;;;;;;;;4996587;28;20435;-83
2022/06/30 06:05:17;;;;;;;7.05;4.95;;;;;;;;;;4997968;28;20045;-84
2022/06/30 06:07:43;;;;;;;5.50;5.00;;;;;;;;;;5012629;28;20487;-83
2022/06/30 06:10:10;;;;;;;5.80;4.38;;;20.00;99.90;;;;;;4980319;28;20409;-84
2022/06/30 06:12:36;;;;;;;7.38;4.50;;;;;;;;;;4979119;28;20185;-84
2022/06/30 06:15:03;;;;;;;5.32;4.70;;;20.10;99.90;;;;;;4979580;28;20069;-82
2022/06/30 06:17:30;;;;;;;8.63;5.03;;;;;;;;;;5032370;28;20057;-83
2022/06/30 06:19:56;;;;;;;7.78;4.60;;;;;;;;;;5015973;28;20052;-82
2022/06/30 06:22:22;;;;;;;5.95;5.10;;;;;;;;;;5033449;28;20049;-86
2022/06/30 06:24:48;;;;;;;6.95;4.88;;;;;;;;;;5016022;28;20055;-85
2022/06/30 06:27:14;;;;;;;6.93;4.63;;;;;;;;;;5019373;28;20055;-86
2022/06/30 06:29:40;;;;;;;7.85;5.07;;;;;;;;;;5018952;28;20155;-84
2022/06/30 06:32:07;;;;;;;8.10;4.82;;;20.50;99.90;;;;;;5035215;28;20041;-83
2022/06/30 06:34:33;;;;;;;6.13;4.80;;;;;;;;;;5037967;28;20095;-85
2022/06/30 06:36:59;;;;;;;5.35;4.82;;;;;;;;;;5017287;28;20081;-83
2022/06/30 06:39:25;;;;;;;6.80;4.93;;;;;;;;;;5000681;28;20337;-83
2022/06/30 06:41:51;;;;;;;9.10;5.30;;;;;;;;;;5033025;28;20044;-85
2022/06/30 06:44:17;;;;;;;6.03;5.07;;;;;;;;;;5032458;28;20120;-86
2022/06/30 06:46:43;;;;;;;7.10;5.13;;;21.00;99.90;;;;;;5024095;28;20048;-85
2022/06/30 06:49:09;;;;;;;7.45;5.00;;;20.80;99.90;;;;;;5018476;28;20043;-84
2022/06/30 06:51:35;;;;;;;8.43;5.00;;;21.20;99.90;;;;;;5018639;28;20053;-86
2022/06/30 06:54:02;;;;;;;6.35;5.32;;;21.10;99.90;;;;;;5034654;28;20493;-85
2022/06/30 06:56:28;;;;;;;5.93;5.30;;;21.40;99.90;;;;;;5016261;28;20505;-84
2022/06/30 06:58:54;;;;;;;7.03;5.28;;;21.10;99.90;;;;;;5034864;28;20116;-85
2022/06/30 07:01:20;;;;;;;8.35;5.57;;;;;;;;;;5018031;28;20127;-86
2022/06/30 07:03:46;;;;;;;6.07;4.93;;;;;;;;;;5018133;28;20135;-83
2022/06/30 07:06:12;;;;;;;10.00;5.55;;;;;;;;;;5018106;28;20085;-83
2022/06/30 07:08:38;;;;;;;6.95;5.22;;;;;;;;;;5033898;28;20056;-86
2022/06/30 07:11:05;;;;;;;6.50;4.90;;;;;;;;;;5034751;28;20041;-83
2022/06/30 07:13:32;;;;;;;6.63;5.13;;;21.50;99.90;;;;;;4998508;28;20409;-85
2022/06/30 07:15:59;;;;;;;7.20;5.70;;;;;;;;;;4998287;28;20045;-85
2022/06/30 07:18:25;;;;;;;7.55;6.60;;;;;;;;;;5016429;28;20060;-85
2022/06/30 07:20:51;;;;;;;6.60;5.43;;;21.80;99.90;;;;;;5018200;28;20045;-85
2022/06/30 07:23:17;;;;;;;9.35;6.40;;;;;;;;;;5018056;28;20140;-85
2022/06/30 07:25:43;;;;;;;8.50;5.78;;;;;;;;;;5034336;28;20041;-85
2022/06/30 07:28:09;;;;;;;7.13;5.85;;;;;;;;;;5017704;28;20067;-85
2022/06/30 07:30:35;;;;;;;7.65;6.32;;;22.00;99.90;;;;;;5050179;28;20060;-85
2022/06/30 07:33:00;;;;;;;8.45;6.50;;;22.10;99.90;;;;;;5052019;28;20049;-85
2022/06/30 07:35:29;;;;;;;6.65;5.70;;;19.60;99.90;;;;;;5034485;28;20041;-85
2022/06/30 07:37:55;;;;;;;6.22;5.68;;;;;;;;;;5017730;28;20044;-84
2022/06/30 07:40:21;;;;;;;11.45;6.43;;;22.10;99.90;;;;;;5050112;28;20076;-85
2022/06/30 07:42:48;;;;;;;7.13;6.03;;;22.20;99.90;;;;;;5052097;28;20107;-83
2022/06/30 07:45:14;;;;;;;7.80;6.40;;;22.20;99.90;;;;;;5034203;28;20045;-85
2022/06/30 07:47:42;;;;;;;12.63;6.07;;;22.30;99.90;;;;;;5034151;28;20124;-84
2022/06/30 07:50:08;;;;;;;11.55;6.75;;;22.40;99.90;;;;;;5050040;28;20391;-86
2022/06/30 07:52:34;;;;;;;11.23;6.22;;;;;;;;;;5034021;28;20052;-85
2022/06/30 07:55:01;;;;;;;8.38;5.80;;;22.50;99.90;;;;;;5051970;28;20045;-85
2022/06/30 07:57:27;;;;;;;6.43;5.82;;;22.70;99.90;;;;;;5052133;28;20029;-86
2022/06/30 07:59:53;;;;;;;6.88;6.18;;;22.90;99.90;;;;;;5034375;28;20056;-85
2022/06/30 08:02:19;;;;;;;7.55;6.30;;;22.80;99.90;;;;;;5049504;28;20067;-85
2022/06/30 08:04:45;;;;;;;10.23;7.00;;;23.00;99.90;;;;;;5017506;28;20075;-86
2022/06/30 08:07:11;;;;;;;6.50;5.90;;;23.20;99.90;;;;;;5033645;28;20493;-85
2022/06/30 08:09:37;;;;;;;9.30;6.55;;;23.00;99.90;;;;;;5032541;28;20059;-85
2022/06/30 08:12:03;;;;;;;6.50;6.00;;;23.00;99.90;;;;;;5013279;28;20046;-85
2022/06/30 08:14:29;;;;;;;9.52;5.88;;;23.20;99.90;;;;;;5013889;28;20057;-83
2022/06/30 08:16:55;;;;;;;7.40;6.03;;;23.50;99.90;;;;;;5013491;28;20406;-83
2022/06/30 08:19:21;;;;;;;11.57;6.70;;;23.30;99.90;;;;;;5014283;28;20049;-84
2022/06/30 08:21:47;;;;;;;7.57;6.55;;;23.50;99.90;;;;;;5015959;28;20049;-83
2022/06/30 08:24:14;;;;;;;6.53;6.03;;;23.40;99.90;;;;;;5033655;28;20068;-84
2022/06/30 08:26:40;;;;;;;6.53;5.90;;;23.50;99.90;;;;;;5017039;28;20041;-83
2022/06/30 08:29:05;;;;;;;10.48;6.78;;;23.60;99.90;;;;;;5051206;28;20095;-83
2022/06/30 08:31:33;;;;;;;9.07;7.35;;;23.70;99.90;;;;;;5049131;28;20041;-83
2022/06/30 08:33:59;;;;;;;9.80;6.80;;;23.80;99.90;;;;;;5051246;28;20049;-83
2022/06/30 08:36:25;;;;;;;6.72;5.63;;;24.00;99.90;;;;;;5037683;28;20099;-83
2022/06/30 08:38:50;;;;;;;9.77;6.60;;;23.90;99.90;;;;;;5020873;28;20378;-84
2022/06/30 08:44:00;;;;;;;7.38;6.47;;;24.20;99.90;;;;;;5036229;28;20095;-83
2022/06/30 08:46:27;;;;;;;9.52;6.70;;;24.10;99.90;;;;;;5020843;28;20045;-84
2022/06/30 08:48:54;;;;;;;8.57;7.10;;;24.10;99.90;;;;;;5020518;28;20037;-85
2022/06/30 08:51:20;;;;;;;7.88;6.32;;;24.40;99.90;;;;;;5036357;28;20044;-84
2022/06/30 08:54:00;;;;;;;8.32;7.53;;;25.80;99.90;;;;;;5037293;28;20052;-86
2022/06/30 08:56:31;;;;;;;10.05;7.07;;;24.60;99.90;;;;;;5020825;28;20485;-85
2022/06/30 08:58:58;;;;;;;8.30;6.18;;;24.50;99.90;;;;;;5054330;28;20417;-85
2022/06/30 09:01:26;;;;;;;11.82;7.55;;;24.70;99.90;;;;;;5037333;28;20080;-85
2022/06/30 09:03:52;;;;;;;10.70;7.30;;;25.20;99.90;;;;;;5054493;28;20045;-86
2022/06/30 09:06:18;;;;;;;9.63;7.88;;;24.70;99.90;;;;;;5020514;28;20044;-86
2022/06/30 09:08:44;;;;;;;9.13;8.25;;;24.80;99.90;;;;;;5054952;28;20426;-86
2022/06/30 09:11:10;;;;;;;8.60;7.72;;;25.10;99.90;;;;;;5036078;28;20139;-85
2022/06/30 09:13:50;;;;;;;9.18;8.32;;;25.00;99.90;;;;;;5020180;28;20041;-85
2022/06/30 09:16:19;;;;;;;11.93;7.50;;;25.30;99.90;;;;;;5020486;28;20056;-85
2022/06/30 09:18:46;;;;;;;8.77;7.97;;;25.40;99.90;;;;;;5019843;28;20040;-84
2022/06/30 09:21:17;;;;;;;9.85;8.50;;;25.40;99.90;;;;;;5029128;28;20091;-82
2022/06/30 09:23:45;;;;;;;8.20;7.40;;;25.50;99.90;;;;;;5010835;28;20041;-83
2022/06/30 09:26:18;;;;;;;10.88;7.43;;;25.60;99.90;;;;;;5032791;28;20049;-83
2022/06/30 09:28:50;;;;;;;9.52;8.63;;;25.70;99.90;;;;;;5033308;28;20060;-83
2022/06/30 09:31:34;;;;;;;9.73;7.47;;;25.60;99.90;;;;;;5053989;28;20053;-83
2022/06/30 09:34:21;;;;;;;11.07;8.50;;;25.60;99.90;;;;;;5036005;28;20052;-83
2022/06/30 09:36:52;;;;;;;8.77;8.05;;;25.90;99.90;;;;;;5068836;28;20049;-84
2022/06/30 09:39:19;;;;;;;15.18;8.65;;;25.80;99.90;;;;;;5053231;28;20486;-83
2022/06/30 09:41:48;;;;;;;10.68;8.30;;;25.80;99.90;;;;;;5019499;28;20047;-85
2022/06/30 09:44:16;;;;;;;13.20;9.82;;;25.90;99.90;;;;;;5068458;28;20462;-83
2022/06/30 09:47:10;;;;;;;9.20;7.45;;;26.10;99.90;;;;;;5035490;28;20045;-83
2022/06/30 09:49:40;;;;;;;8.55;7.63;;;25.70;99.90;;;;;;5036303;28;20048;-83
2022/06/30 09:52:18;;;;;;;9.68;8.65;;;26.00;99.90;;;;;;5035753;28;20437;-83
2022/06/30 09:55:03;;;;;;;9.63;8.63;;;26.10;99.90;;;;;;5015090;28;20089;-83
2022/06/30 09:57:42;;;;;;;10.25;9.23;;;26.20;99.90;;;;;;4999871;28;20135;-84
2022/06/30 10:00:18;;;;;;;15.45;9.05;;;26.40;99.90;;;;;;4999997;28;20556;-83
2022/06/30 10:02:46;;;;;;;13.20;8.80;;;26.30;99.90;;;;;;5049401;28;20037;-83
2022/06/30 10:05:15;;;;;;;12.10;10.00;;;26.00;99.90;;;;;;5064350;28;20413;-84
2022/06/30 10:07:41;;;;;;;10.75;9.70;;;26.40;99.90;;;;;;5035758;28;20552;-85
2022/06/30 10:10:12;;;;;;;12.52;10.32;;;26.30;99.90;;;;;;5035494;28;20179;-83
2022/06/30 10:12:40;;;;;;;9.77;8.68;;;26.10;99.90;;;;;;5035791;28;20052;-83
2022/06/30 10:15:08;;;;;;;10.55;9.55;;;26.30;99.90;;;;;;5015466;28;20041;-84
2022/06/30 10:17:37;;;;;;;9.75;7.65;;;26.20;99.90;;;;;;4983193;28;20482;-86
2022/06/30 10:20:04;;;;;;;8.68;7.88;;;26.20;99.90;;;;;;5033643;28;20052;-83
2022/06/30 10:22:30;;;;;;;7.47;6.78;;;26.30;99.90;;;;;;5018200;28;20087;-83
2022/06/30 10:25:24;;;;;;;9.48;8.57;;;24.60;99.90;;;;;;5035389;28;20052;-83
2022/06/30 10:27:50;;;;;;;11.82;8.00;;;26.50;99.90;;;;;;5035499;28;20394;-83
2022/06/30 10:30:21;;;;;;;9.65;7.38;;;27.00;99.90;;;;;;5015999;28;20057;-83
2022/06/30 10:33:10;;;;;;;10.68;8.00;;;26.70;99.90;;;;;;5048221;28;20045;-83
2022/06/30 10:35:42;;;;;;;9.00;8.20;;;27.00;99.90;;;;;;5035295;28;20078;-83
2022/06/30 10:38:45;;;;;;;9.23;7.68;;;26.90;99.90;;;;;;5019096;28;20037;-84
2022/06/30 10:41:14;;;;;;;10.93;7.28;;;26.90;99.90;;;;;;5029426;28;20045;-83
2022/06/30 10:44:05;;;;;;;9.30;6.72;;;27.00;99.90;;;;;;5015840;28;20048;-84
2022/06/30 10:46:35;;;;;;;9.73;5.97;;;27.10;99.90;;;;;;5035354;28;20370;-84
2022/06/30 10:49:12;;;;;;;7.65;6.38;;;27.00;99.90;;;;;;5018704;28;20374;-83
2022/06/30 10:51:39;;;;;;;7.03;6.22;;;27.20;99.90;;;;;;5062951;28;20051;-84
2022/06/30 10:54:06;;;;;;;11.98;7.28;;;27.20;99.90;;;;;;5068110;28;20048;-84
2022/06/30 10:56:51;;;;;;;8.63;7.72;;;27.20;99.90;;;;;;5019147;28;20049;-86
2022/06/30 10:59:27;;;;;;;7.88;6.97;;;27.30;99.90;;;;;;5018593;28;20067;-86
2022/06/30 11:02:10;;;;;;;9.23;7.78;;;27.50;99.90;;;;;;5034868;28;20098;-86
2022/06/30 11:04:37;;;;;;;13.10;7.90;;;27.20;99.90;;;;;;5032129;28;20041;-86
2022/06/30 11:07:05;;;;;;;9.95;7.80;;;27.50;99.90;;;;;;5018264;28;20037;-86
2022/06/30 11:09:54;;;;;;;9.60;8.70;;;27.10;99.90;;;;;;5018559;28;20041;-86
2022/06/30 11:12:29;;;;;;;16.27;7.80;;;27.30;99.90;;;;;;5018039;28;20052;-87
2022/06/30 11:14:57;;;;;;;12.05;9.07;;;27.10;99.90;;;;;;5029234;28;20084;-86
2022/06/30 11:17:31;;;;;;;10.00;7.55;;;27.00;99.90;;;;;;5018439;28;20375;-86
2022/06/30 11:20:01;;;;;;;8.70;7.80;;;26.90;99.90;;;;;;5018241;28;20084;-86
2022/06/30 11:22:29;;;;;;;8.13;7.43;;;27.10;99.90;;;;;;5034151;28;20116;-86
2022/06/30 11:25:01;;;;;;;11.68;8.75;;;27.00;99.90;;;;;;5025099;28;20045;-85
2022/06/30 11:27:28;;;;;;;17.95;8.70;;;27.10;99.90;;;;;;5033959;28;20056;-85
2022/06/30 11:29:58;;;;;;;10.38;9.25;;;27.30;99.90;;;;;;5029712;28;20107;-84
2022/06/30 11:32:24;;;;;;;10.82;9.13;;;27.30;99.90;;;;;;5033403;28;20036;-85
2022/06/30 11:34:50;;;;;;;11.93;8.52;;;27.30;99.90;;;;;;5017618;28;20082;-83
2022/06/30 11:37:24;;;;;;;9.68;8.68;;;27.10;99.90;;;;;;5034077;28;20060;-85
2022/06/30 11:40:05;;;;;;;12.48;9.73;;;27.60;99.90;;;;;;5026808;28;20044;-83
2022/06/30 11:42:31;;;;;;;10.73;8.93;;;27.60;99.90;;;;;;5064894;28;20049;-84
2022/06/30 11:44:57;;;;;;;12.98;8.23;;;27.50;99.90;;;;;;5033869;28;20512;-83
2022/06/30 11:47:23;;;;;;;12.73;8.23;;;27.90;99.90;;;;;;5033884;28;20103;-85
2022/06/30 11:49:51;;;;;;;13.80;8.75;;;27.80;99.90;;;;;;5046489;28;20096;-84
2022/06/30 11:52:27;;;;;;;13.15;6.82;;;27.60;99.90;;;;;;5031887;28;20048;-84
2022/06/30 11:55:03;;;;;;;8.68;6.50;;;27.70;99.90;;;;;;5017306;28;20044;-83
2022/06/30 11:57:34;;;;;;;11.68;8.32;;;27.60;99.90;;;;;;5033822;28;20055;-83
2022/06/30 12:00:02;;;;;;;7.72;6.75;;;27.50;99.90;;;;;;5033505;28;20053;-84
2022/06/30 12:02:28;;;;;;;9.25;6.82;;;27.60;99.90;;;;;;5012746;28;20051;-85
2022/06/30 12:04:56;;;;;;;6.53;5.00;;;27.60;99.90;;;;;;5033650;28;20088;-84
2022/06/30 12:07:23;;;;;;;8.68;5.03;;;27.80;99.90;;;;;;5017416;28;20041;-86
2022/06/30 12:09:54;;;;;;;6.03;5.38;;;27.90;99.90;;;;;;5029894;28;20151;-85
2022/06/30 12:12:28;;;;;;;9.27;5.60;;;27.80;99.90;;;;;;5032228;28;20040;-83
2022/06/30 12:14:56;;;;;;;8.90;4.95;;;27.90;99.90;;;;;;5017114;28;20099;-85
2022/06/30 12:17:23;;;;;;;9.23;4.47;;;28.10;99.90;;;;;;5017093;28;20080;-83
2022/06/30 12:19:51;;;;;;;5.47;4.95;;;27.90;99.90;;;;;;5033753;28;20076;-83
2022/06/30 12:22:17;;;;;;;6.18;5.20;;;27.80;99.90;;;;;;5029671;28;20037;-83
2022/06/30 12:24:46;;;;;;;7.00;4.88;;;27.60;99.90;;;;;;5016735;28;20071;-84
2022/06/30 12:27:26;;;;;;;6.82;5.13;;;28.00;99.90;;;;;;5016783;28;20052;-83
2022/06/30 12:29:57;;;;;;;9.63;5.82;;;27.70;99.90;;;;;;5044633;28;20053;-83
2022/06/30 12:32:22;;;;;;;6.03;3.40;;;27.90;99.90;;;;;;5017041;28;20037;-86
2022/06/30 12:35:00;;;;;;;9.50;3.33;;;28.00;99.90;;;;;;5016866;28;20125;-84
2022/06/30 12:37:30;;;;;;;9.30;3.40;;;27.90;99.90;;;;;;5042018;28;20041;-84
2022/06/30 12:39:58;;;;;;;6.47;3.55;;;28.00;99.90;;;;;;5033622;28;20049;-83
2022/06/30 12:42:26;;;;;;;10.07;4.43;;;28.30;99.90;;;;;;5029039;28;20045;-85
2022/06/30 12:44:52;;;;;;;11.05;3.70;;;27.90;99.90;;;;;;5051014;28;20532;-83
2022/06/30 12:47:18;;;;;;;10.82;3.47;;;27.90;99.90;;;;;;5033376;28;20037;-83
2022/06/30 12:49:44;;;;;;;5.20;3.53;;;28.10;99.90;;;;;;5051504;28;20045;-83
2022/06/30 12:52:13;;;;;;;9.10;5.45;;;27.90;99.90;;;;;;5025352;28;20620;-84
2022/06/30 12:54:53;;;;;;;8.38;6.93;;;28.30;99.90;;;;;;4994128;28;20062;-84
2022/06/30 12:57:19;;;;;;;8.93;6.50;;;28.10;99.90;;;;;;5010497;28;20398;-85
2022/06/30 12:59:48;;;;;;;7.93;6.93;;;28.10;99.90;;;;;;5010197;28;20436;-85
2022/06/30 13:02:17;;;;;;;14.85;7.72;;;28.20;99.90;;;;;;5016403;28;20040;-85
2022/06/30 13:04:55;;;;;;;11.75;9.00;;;28.10;99.90;;;;;;5063958;28;20048;-86
2022/06/30 13:07:21;;;;;;;11.60;7.38;;;28.00;99.90;;;;;;5048586;28;20106;-83
2022/06/30 13:09:49;;;;;;;17.05;7.43;;;27.90;99.90;;;;;;5033147;28;20041;-85
2022/06/30 13:12:16;;;;;;;10.38;8.48;;;27.80;99.90;;;;;;5047120;28;20090;-85
2022/06/30 13:14:42;;;;;;;21.85;7.68;;;30.40;99.90;;;;;;5048572;28;20511;-85
2022/06/30 13:17:09;;;;;;;13.43;7.45;;;27.60;99.90;;;;;;5016661;28;20041;-83
2022/06/30 13:19:35;;;;;;;18.23;6.80;;;27.30;99.90;;;;;;5033083;28;20045;-85
2022/06/30 13:22:02;;;;;;;12.63;6.30;;;27.50;99.90;;;;;;5036252;28;20049;-86
2022/06/30 13:24:28;;;;;;;9.90;6.53;;;27.50;99.90;;;;;;5030089;28;20056;-83
2022/06/30 13:26:55;;;;;;;11.30;5.80;;;27.30;99.90;;;;;;5053806;28;20033;-83
2022/06/30 13:29:23;;;;;;;9.82;6.38;;;27.60;99.90;;;;;;5036807;28;20049;-83
2022/06/30 13:31:50;;;;;;;8.50;6.30;;;27.20;99.90;;;;;;5054158;28;20469;-83
2022/06/30 13:34:16;;;;;;;13.00;8.32;;;27.30;99.90;;;;;;5051002;28;20394;-83
2022/06/30 13:36:43;;;;;;;10.88;7.70;;;27.80;99.90;;;;;;5036428;28;20045;-86
2022/06/30 13:39:10;;;;;;;11.73;7.63;;;26.80;99.90;;;;;;5020009;28;20048;-85